1974 Severe Tropical Cyclone ISOBEL (1974068S12112)


IBTrACS version v04r00. Visit IBTrACS website for data access.
Please direct all questions to the IBTrACS Q and A forum

Storm track - Intensity - Wind Radii - Intensity Data - Source Data - All data

Summary Information

Storm ID 1974068S12112
Start Mar 9 00Z
Max Intensity 70 kt (Mar 12 18Z), 973 mb (Mar 12 19Z)
End Mar 17 01Z
ATCF IDs ,SH281974
Track status Best track data.

Storm track plot

Map of storm track

Intensity plots

Map of storm track

Radial wind information

No radial wind information for this storm


Position and Intensity Table

BASIN ISO_TIME_________ NATURE LAT LON WMO WIND WMO PRES BOM WIND BOM PRES DS824 WIND DS824 PRES NEUMANN WIND NEUMANN PRES
degrees north degrees east kts mb kts mb kts mb kts mb
SI 1974-03-09 00:00:00 TS -12.00 111.70
SI 01:00:00 TS -12.04 111.64 20 1003 20 1003
SI 03:00:00 TS -12.05 111.55 23 1003
SI 04:00:00 TS -12.06 111.50 25 1003 25 1003
SI 06:00:00 TS -12.14 111.40 25 1003 25 1003 25 1003
SI 07:00:00 TS -12.19 111.36 25 1003 25 1003 25 1003 25 1003
SI 09:00:00 TS -12.27 111.24 25 1003 25 1003 25 1003
SI 10:00:00 TS -12.32 111.18 25 1003 25 1003 25 1003 25 1003
SI 12:00:00 TS -12.38 111.06 25 1003 25 1003 25 1003
SI 13:00:00 TS -12.41 111.00 25 1003 25 1003 25 1003 25 1003
SI 15:00:00 TS -12.45 110.87 25 1003 25 1003 25 1003
SI 16:00:00 TS -12.48 110.81 25 1003 25 1003 25 1003 25 1003
SI 18:00:00 TS -12.55 110.68 25 1003 25 1003 25 1003
SI 19:00:00 TS -12.59 110.62 25 1003 25 1003 25 1003 25 1003
SI 21:00:00 TS -12.66 110.52 25 1003 25 1003 25 1003
SI 22:00:00 TS -12.71 110.47 25 1003 25 1003 25 1003 25 1003
SI 1974-03-10 00:00:00 TS -12.80 110.36 25 1003 25 1003 25 1003
SI 01:00:00 TS -12.86 110.31 25 1003 25 1003 25 1002 25 1002
SI 03:00:00 TS -12.97 110.21 25 1002 27 1002 25 1002
SI 04:00:00 TS -13.02 110.17 25 1002 25 1002 28 1001 25 1002
SI 06:00:00 TS -13.11 110.08 25 1001 30 1001 25 1002
SI 07:00:00 TS -13.14 110.04 25 1001 25 1001 30 1000 25 1001
SI 09:00:00 TS -13.19 109.95 25 1001 30 1000 27 1001
SI 10:00:00 TS -13.22 109.90 25 1001 25 1001 30 1000 28 1000
SI 12:00:00 TS -13.28 109.81 25 1000 30 1000 30 1000
SI 13:00:00 TS -13.31 109.76 25 1000 25 1000 30 1000 30 999
SI 15:00:00 TS -13.38 109.67 25 1000 30 1000 30 999
SI 16:00:00 TS -13.41 109.63 25 1000 25 1000 30 1000 30 999
SI 18:00:00 TS -13.48 109.55 28 1000 30 1000 30 999
SI 19:00:00 TS -13.51 109.51 30 1000 30 1000 30 999 30 999
SI 21:00:00 TS -13.55 109.44 30 1000 30 999 30 999
SI 22:00:00 TS -13.58 109.40 30 1000 30 1000 30 999 30 999
SI 1974-03-11 00:00:00 TS -13.66 109.34 30 999 30 999 30 999
SI 01:00:00 TS -13.70 109.31 30 999 30 999 31 998 31 998
SI 03:00:00 TS -13.77 109.26 36 996 35 996 35 997
SI 04:00:00 TS -13.81 109.23 40 996 40 996 36 995 36 996
SI 06:00:00 TS -13.89 109.17 40 993 40 993 40 995
SI 07:00:00 TS -13.93 109.14 40 993 40 993 41 992 40 994
SI 09:00:00 TS -14.01 109.08 43 991 45 991 42 992
SI 10:00:00 TS -14.05 109.04 45 991 45 991 46 990 43 991
SI 12:00:00 TS -14.13 108.96 48 989 50 989 45 990
SI 13:00:00 TS -14.17 108.92 50 989 50 989 50 988 46 989
SI 15:00:00 TS -14.25 108.85 53 985 52 987 50 988
SI 16:00:00 TS -14.30 108.81 55 984 55 984 53 986 51 987
SI 18:00:00 TS -14.40 108.74 55 984 55 985 55 986
SI 19:00:00 TS -14.44 108.71 55 985 55 985 55 984 55 985
SI 21:00:00 TS -14.53 108.65 55 983 57 983 57 984
SI 22:00:00 TS -14.57 108.62 55 983 55 983 58 982 58 983
SI 1974-03-12 00:00:00 TS -14.67 108.57 55 981 60 981 60 982
SI 01:00:00 TS -14.74 108.53 55 981 55 981 60 980 60 981
SI 03:00:00 TS -14.91 108.44 58 980 60 979 62 980
SI 04:00:00 TS -15.01 108.39 60 980 60 980 60 979 63 980
SI 06:00:00 TS -15.21 108.29 60 978 60 978 65 979
SI 07:00:00 TS -15.32 108.24 60 978 60 978 60 977 65 978
SI 09:00:00 TS -15.55 108.14 63 977 62 977 65 977
SI 10:00:00 TS -15.68 108.09 65 977 65 977 63 976 65 977
SI 12:00:00 TS -15.91 107.99 65 976 65 976 65 976
SI 13:00:00 TS -16.02 107.95 65 976 65 976 65 975 65 975
SI 15:00:00 TS -16.23 107.86 65 975 65 975 67 975
SI 16:00:00 TS -16.34 107.82 65 975 65 975 65 974 68 975
SI 18:00:00 TS -16.58 107.72 68 974 65 974 70 975
SI 19:00:00 TS -16.70 107.67 70 974 70 974 65 973 70 974
SI 21:00:00 TS -16.92 107.57 70 974 67 973 70 974
SI 22:00:00 TS -17.05 107.51 70 974 70 974 68 973 70 973
SI 1974-03-13 00:00:00 TS -17.34 107.39 70 973 70 973 70 973
SI 01:00:00 TS -17.50 107.32 70 973 70 973 69 973 69 973
SI 03:00:00 TS -17.85 107.16 70 974 67 974 67 974
SI 04:00:00 TS -18.03 107.06 70 975 70 975 66 974 66 974
SI 06:00:00 TS -18.43 106.85 70 975 65 975 65 976
SI 07:00:00 TS -18.64 106.73 70 975 70 975 63 976 64 976
SI 09:00:00 TS -19.10 106.56 66 976 60 978 62 978
SI 10:00:00 TS -19.36 106.54 65 977 65 977 58 979 61 978
SI 12:00:00 TS -19.83 106.48 61 980 55 982 60 980
SI 13:00:00 TS -20.09 106.65 60 982 60 982 55 982 59 980
SI 15:00:00 TS -20.30 106.39 56 984 55 983 57 982
SI 16:00:00 TS -20.40 106.25 55 986 55 986 55 983 56 982
SI 18:00:00 TS -20.60 105.95 55 985 55 985 55 984
SI 19:00:00 TS -20.70 105.81 55 985 55 985 54 985 54 984
SI 21:00:00 TS -20.90 105.57 55 985 52 986 52 985
SI 22:00:00 TS -20.99 105.43 55 986 55 986 51 986 51 985
SI 1974-03-14 00:00:00 TS -21.19 105.11 51 987 50 988 50 987
SI 01:00:00 TS -21.29 104.91 50 988 50 988 50 988
SI 03:00:00 TS -21.48 104.55 50 989 50 988
SI 04:00:00 TS -21.56 104.36 50 990 50 990 50 988
SI 06:00:00 TS -21.71 103.91 46 989 50 989
SI 07:00:00 TS -21.80 103.71 45 989 45 989 48 989
SI 09:00:00 TS -22.05 103.40 45 989 45 991
SI 10:00:00 TS -22.18 103.24 45 990 45 990 43 991
SI 12:00:00 TS -22.40 102.82 41 992 40 993
SI 13:00:00 TS -22.50 102.60 40 993 40 993 40 993
SI 15:00:00 TS -22.71 102.18 40 993 40 993
SI 16:00:00 TS -22.81 101.97 40 994 40 994 40 993
SI 18:00:00 TS -23.00 101.52 40 993 40 993
SI 19:00:00 TS -23.10 101.30 40 993 40 993 40 993
SI 21:00:00 TS -23.29 100.90 40 993 40 993
SI 22:00:00 TS -23.38 100.70 40 993 40 993 40 993
SI 1974-03-15 00:00:00 TS -23.52 100.30 40 993 40 994
SI 01:00:00 TS -23.58 100.10 40 994 40 994 40 994
SI 03:00:00 TS -23.67 99.69 40 994 40 994
SI 04:00:00 TS -23.69 99.47 40 995 40 995 40 994
SI 06:00:00 TS -23.71 98.98 40 994 40 994
SI 07:00:00 TS -23.70 98.73 40 994 40 994 38 994
SI 09:00:00 TS -23.65 98.30 36 995 35 997
SI 10:00:00 TS -23.60 98.08 35 996 35 996 33 997
SI 12:00:00 TS -23.49 97.62 31 998 30 1000
SI 13:00:00 TS -23.42 97.39 30 1000 30 1000 29 1000
SI 15:00:00 TS -23.29 96.97 26 1002 27 1001
SI 16:00:00 TS -23.22 96.76 25 1003 25 1003 26 1001
SI 18:00:00 TS -23.08 96.32 25 1002 25 1002
SI 19:00:00 TS -23.02 96.09 25 1002 25 1002 25 1002
SI 21:00:00 TS -22.88 95.67 25 1002 25 1002
SI 22:00:00 TS -22.81 95.48 25 1002 25 1002 25 1002
SI 1974-03-16 00:00:00 TS -22.68 95.09 25 1002 25 1003
SI 01:00:00 TS -22.62 94.93 25 1003 25 1003 25 1003
SI 03:00:00 TS -22.55 94.71 25 1003 25 1003
SI 04:00:00 TS -22.50 94.61 25 1004 25 1004 25 1003
SI 06:00:00 TS -22.39 94.41 25 1003 25 1003
SI 07:00:00 TS -22.31 94.28 25 1003 25 1003 24 1003
SI 09:00:00 TS -22.12 93.97 25 1003 22 1004
SI 10:00:00 TS -22.03 93.81 25 1004 25 1004 21 1004
SI 12:00:00 TS -21.91 93.48 25 1004 20 1005
SI 13:00:00 TS -21.88 93.32 25 1005 25 1005 20 1005
SI 15:00:00 TS -21.81 93.04 25 1005 20 1005
SI 16:00:00 TS -21.78 92.90 25 1006 25 1006 20 1005
SI 18:00:00 TS -21.72 92.62 25 1005 20 1005
SI 19:00:00 TS -21.68 92.48 25 1005 25 1005 19 1005
SI 21:00:00 TS -21.57 92.21 25 1005 17 1005
SI 22:00:00 TS -21.51 92.08 25 1005 25 1005 16 1005
SI 1974-03-17 00:00:00 TS -21.42 91.82 25 1005 15 1006
SI 01:00:00 NR -21.40 91.70 25 1006 25 1006

Source Information

Agency Information
USA bsh281974.txt
TOKYO
CMA
HKO
NEWDELHI
REUNION
BOM IDCKMSTM0S.csv:Line=8804:ISOBEL
NADI
WELLINGTON
DS824 aus_area.dat:521:ISOBEL
TD9636 cons_worldwide_trop_cyclone_18710101-19891231-006:Line=9621
TD9635
NEUMANN tracks.sh:Storm=405:ISOBEL:BSH2874:BM440
MLC

All available IBTrACS Data

SEASON BASIN SUBBASIN ISO_TIME_________ NATURE LAT LON WMO WIND WMO PRES WMO AGENCY DIST2LAND LANDFALL IFLAG USA AGENCY USA ATCF_ID USA LAT USA LON USA SSHS BOM LAT BOM LON BOM TYPE BOM WIND BOM PRES BOM TNUM BOM CI BOM PRES_METHOD DS824 LAT DS824 LON DS824 STAGE DS824 WIND DS824 PRES TD9636 LAT TD9636 LON TD9636 STAGE NEUMANN LAT NEUMANN LON NEUMANN CLASS NEUMANN WIND NEUMANN PRES STORM SPEED STORM DIR
Year degrees north degrees east kts mb km km degrees north degrees east 1 degrees north degrees east kts mb 1 1 degrees north degrees east kts mb degrees north degrees east degrees north degrees east kts mb kts degrees
1974 SI WA 1974-03-09 00:00:00 TS -12.00 111.70 403 403 O_________O___ jtwc_sh SH281974 -12.00 111.70 -1 -12.00 111.70 4 4 233
1974 SI WA 01:00:00 TS -12.04 111.64 20 1003 bom 403 403 P_____O___P___ SH281974 -11.99 111.65 -1 -12.30 111.60 20 20 1003 1.00 -12.01 111.64 4 3 251
1974 SI WA 03:00:00 TS -12.05 111.55 415 415 P_____P___P___ SH281974 -11.98 111.56 -1 -12.29 111.53 20 23 1003 -12.03 111.53 4 3 262
1974 SI WA 04:00:00 TS -12.06 111.50 25 1003 bom 415 415 P_____O___P___ SH281974 -11.98 111.51 -1 -12.30 111.50 20 25 1003 1.50 1.50 -12.04 111.47 4 3 237
1974 SI WA 06:00:00 TS -12.14 111.40 415 415 O_____P__OP_O_ jtwc_sh SH281974 -12.00 111.40 -1 -12.36 111.44 20 25 1003 -12.40 111.40 TC 25 1003 -12.07 111.35 4 -12.40 111.50 TC 25 1003 4 227
1974 SI WA 07:00:00 TS -12.19 111.36 25 1003 bom 426 426 P_____O__PP_P_ SH281974 -12.02 111.34 -1 -12.40 111.40 20 25 1003 1.50 -12.44 111.36 TC 25 1003 -12.09 111.30 4 -12.41 111.45 TC 25 1003 4 231
1974 SI WA 09:00:00 TS -12.27 111.24 440 440 P_____P__PP_P_ SH281974 -12.09 111.21 -1 -12.47 111.27 20 25 1003 -12.51 111.26 TC 25 1003 -12.12 111.18 4 -12.44 111.35 TC 25 1003 4 233
1974 SI WA 10:00:00 TS -12.32 111.18 25 1003 bom 440 440 P_____O__PP_P_ SH281974 -12.12 111.14 -1 -12.50 111.20 20 25 1003 1.50 -12.55 111.21 TC 25 1003 -12.15 111.12 4 -12.46 111.30 TC 25 1003 4 238
1974 SI WA 12:00:00 TS -12.38 111.06 452 452 O_____P__OO_O_ jtwc_sh SH281974 -12.20 111.00 -1 -12.57 111.07 20 25 1003 -12.60 111.10 TC 25 1003 -12.20 111.00 4 -12.50 111.20 TC 25 1003 4 243
1974 SI WA 13:00:00 TS -12.41 111.00 25 1003 bom 454 454 P_____O__PP_P_ SH281974 -12.23 110.93 -1 -12.60 111.00 20 25 1003 1.50 -12.62 111.04 TC 25 1003 -12.23 110.94 4 -12.53 111.15 TC 25 1003 4 248
1974 SI WA 15:00:00 TS -12.45 110.87 467 467 P_____P__PP_P_ SH281974 -12.29 110.79 -1 -12.60 110.87 20 25 1003 -12.65 110.90 TC 25 1003 -12.30 110.82 4 -12.59 111.06 TC 25 1003 4 248
1974 SI WA 16:00:00 TS -12.48 110.81 25 1003 bom 469 469 P_____O__PP_P_ SH281974 -12.33 110.73 -1 -12.60 110.80 20 25 1003 1.50 -12.66 110.83 TC 25 1003 -12.34 110.76 4 -12.63 111.01 TC 25 1003 4 244
1974 SI WA 18:00:00 TS -12.55 110.68 472 472 O_____P__OP_O_ jtwc_sh SH281974 -12.40 110.60 -1 -12.66 110.66 20 25 1003 -12.70 110.70 TC 25 1003 -12.43 110.64 4 -12.70 110.90 TC 25 1003 4 239
1974 SI WA 19:00:00 TS -12.59 110.62 25 1003 bom 485 485 P_____O__PP_P_ SH281974 -12.44 110.54 -1 -12.70 110.60 20 25 1003 1.50 -12.72 110.64 TC 25 1003 -12.47 110.58 4 -12.73 110.84 TC 25 1003 4 234
1974 SI WA 21:00:00 TS -12.66 110.52 498 498 P_____P__PP_P_ SH281974 -12.54 110.44 -1 -12.76 110.54 20 25 1003 -12.78 110.54 TC 25 1003 -12.56 110.46 4 -12.80 110.70 TC 25 1003 4 230
1974 SI WA 22:00:00 TS -12.71 110.47 25 1003 bom 498 498 P_____O__PP_P_ SH281974 -12.59 110.39 -1 -12.80 110.50 20 25 1003 1.50 -12.81 110.49 TC 25 1003 -12.61 110.41 4 -12.83 110.63 TC 25 1003 4 229
1974 SI WA 1974-03-10 00:00:00 TS -12.80 110.36 511 511 O_____P__OO_O_ jtwc_sh SH281974 -12.70 110.30 -1 -12.93 110.36 20 25 1003 -12.90 110.40 TC 25 1003 -12.70 110.30 4 -12.90 110.50 TC 25 1003 4 226
1974 SI WA 01:00:00 TS -12.86 110.31 25 1003 bom 524 524 P_____O__PP_P_ SH281974 -12.75 110.25 -1 -13.00 110.30 20 25 1003 2.00 2.00 -12.96 110.35 TC 25 1002 -12.74 110.25 4 -12.93 110.44 TC 25 1002 4 223
1974 SI WA 03:00:00 TS -12.97 110.21 537 537 P_____P__PP_P_ SH281974 -12.86 110.14 -1 -13.14 110.23 20 25 1002 -13.11 110.25 TC 27 1002 -12.83 110.16 4 -13.00 110.34 TC 25 1002 4 220
1974 SI WA 04:00:00 TS -13.02 110.17 25 1002 bom 537 537 P_____O__PP_P_ SH281974 -12.91 110.09 -1 -13.20 110.20 20 25 1002 2.00 -13.18 110.20 TC 28 1001 -12.87 110.12 4 -13.03 110.29 TC 25 1002 4 223
1974 SI WA 06:00:00 TS -13.11 110.08 550 550 O_____P__OP_O_ jtwc_sh SH281974 -13.00 110.00 -1 -13.28 110.14 20 25 1001 -13.30 110.10 TC 30 1001 -12.96 110.03 4 -13.10 110.20 TC 25 1002 4 226
1974 SI WA 07:00:00 TS -13.14 110.04 25 1001 bom 553 553 P_____O__PP_P_ SH281974 -13.04 109.96 -1 -13.30 110.10 20 25 1001 2.00 -13.33 110.05 TC 30 1000 -13.00 110.00 4 -13.13 110.15 TC 25 1001 3 237
1974 SI WA 09:00:00 TS -13.19 109.95 566 566 P_____P__PP_P_ SH281974 -13.11 109.90 -1 -13.30 109.97 20 25 1001 -13.36 109.95 TC 30 1000 -13.08 109.92 4 -13.20 110.04 TC 27 1001 3 240
1974 SI WA 10:00:00 TS -13.22 109.90 25 1001 bom 566 566 P_____O__PP_P_ SH281974 -13.14 109.87 -1 -13.30 109.90 20 25 1001 2.00 -13.38 109.90 TC 30 1000 -13.12 109.88 4 -13.23 109.99 TC 28 1000 3 237
1974 SI WA 12:00:00 TS -13.28 109.81 579 579 O_____P__OO_O_ jtwc_sh SH281974 -13.20 109.80 -1 -13.36 109.76 20 25 1000 -13.40 109.80 TC 30 1000 -13.20 109.80 4 -13.30 109.90 TC 30 1000 3 236
1974 SI WA 13:00:00 TS -13.31 109.76 25 1000 bom 579 579 P_____O__PP_P_ SH281974 -13.23 109.75 -1 -13.40 109.70 20 25 1000 2.00 -13.43 109.75 TC 30 1000 -13.24 109.76 4 -13.33 109.86 TC 30 999 3 233
1974 SI WA 15:00:00 TS -13.38 109.67 592 592 P_____P__PP_P_ SH281974 -13.30 109.65 -1 -13.47 109.63 20 25 1000 -13.50 109.64 TC 30 1000 -13.31 109.67 4 -13.40 109.79 TC 30 999 3 233
1974 SI WA 16:00:00 TS -13.41 109.63 25 1000 bom 594 594 P_____O__PP_P_ SH281974 -13.33 109.60 -1 -13.50 109.60 20 25 1000 2.00 -13.54 109.59 TC 30 1000 -13.34 109.63 4 -13.43 109.76 TC 30 999 3 232
1974 SI WA 18:00:00 TS -13.48 109.55 607 607 O_____P__OP_O_ jtwc_sh SH281974 -13.40 109.50 -1 -13.57 109.53 20 28 1000 -13.60 109.50 TC 30 1000 -13.41 109.54 4 -13.50 109.70 TC 30 999 3 231
1974 SI WA 19:00:00 TS -13.51 109.51 30 1000 bom 607 607 P_____O__PP_P_ SH281974 -13.43 109.46 -1 -13.60 109.50 20 30 1000 2.50 -13.62 109.46 TC 30 999 -13.44 109.50 4 -13.53 109.67 TC 30 999 3 235
1974 SI WA 21:00:00 TS -13.55 109.44 621 621 P_____P__PP_P_ SH281974 -13.50 109.39 -1 -13.59 109.43 20 30 1000 -13.64 109.38 TC 30 999 -13.50 109.42 4 -13.59 109.60 TC 30 999 2 235
1974 SI WA 22:00:00 TS -13.58 109.40 30 1000 bom 621 621 P_____O__PP_P_ SH281974 -13.53 109.36 -1 -13.60 109.40 20 30 1000 2.50 -13.66 109.35 TC 30 999 -13.54 109.38 4 -13.63 109.57 TC 30 999 3 223
1974 SI WA 1974-03-11 00:00:00 TS -13.66 109.34 634 634 O_____P__OO_O_ jtwc_sh SH281974 -13.60 109.30 -1 -13.73 109.33 20 30 999 -13.70 109.30 TC 30 999 -13.60 109.30 4 -13.70 109.50 TC 30 999 3 221
1974 SI WA 01:00:00 TS -13.70 109.31 30 999 bom 634 634 P_____O__PP_P_ SH281974 -13.63 109.27 -1 -13.80 109.30 20 30 999 2.50 -13.74 109.28 TC 31 998 -13.63 109.26 4 -13.75 109.47 TC 31 998 3 213
1974 SI WA 03:00:00 TS -13.77 109.26 645 645 P_____P__PP_P_ SH281974 -13.70 109.20 -1 -13.87 109.30 20 36 996 -13.83 109.25 TC 35 996 -13.69 109.19 4 -13.85 109.40 TC 35 997 3 212
1974 SI WA 04:00:00 TS -13.81 109.23 40 996 bom 648 648 P_____O__PP_P_ SH281974 -13.73 109.17 -1 -13.90 109.30 30 40 996 3.00 3.00 -13.89 109.24 TC 36 995 -13.72 109.16 4 -13.90 109.37 TC 36 996 3 216
1974 SI WA 06:00:00 TS -13.89 109.17 659 659 O_____P__OP_O_ jtwc_sh SH281974 -13.80 109.10 -1 -13.96 109.24 30 40 993 -14.00 109.20 TC 40 993 -13.78 109.09 4 -14.00 109.30 TC 40 995 3 217
1974 SI WA 07:00:00 TS -13.93 109.14 40 993 bom 661 661 P_____O__PP_P_ SH281974 -13.83 109.07 -1 -14.00 109.20 30 40 993 3.00 -14.05 109.18 TC 41 992 -13.82 109.06 4 -14.04 109.27 TC 40 994 3 218
1974 SI WA 09:00:00 TS -14.01 109.08 672 672 P_____P__PP_P_ SH281974 -13.89 109.00 -1 -14.14 109.14 30 43 991 -14.16 109.12 TC 45 991 -13.89 109.00 4 -14.10 109.20 TC 42 992 3 218
1974 SI WA 10:00:00 TS -14.05 109.04 45 991 bom 686 686 P_____O__PP_P_ SH281974 -13.93 108.97 -1 -14.20 109.10 30 45 991 3.00 -14.21 109.08 TC 46 990 -13.92 108.96 4 -14.13 109.17 TC 43 991 3 224
1974 SI WA 12:00:00 TS -14.13 108.96 686 686 O_____P__OO_O_ jtwc_sh SH281974 -14.00 108.90 -1 -14.27 108.96 30 48 989 -14.30 109.00 TC 50 989 -14.00 108.90 4 -14.20 109.10 TC 45 990 3 226
1974 SI WA 13:00:00 TS -14.17 108.92 50 989 bom 700 700 P_____O__PP_P_ SH281974 -14.04 108.87 -1 -14.30 108.90 30 50 989 3.50 -14.34 108.95 TC 50 988 -14.04 108.87 4 -14.25 109.07 TC 46 989 3 222
1974 SI WA 15:00:00 TS -14.25 108.85 713 713 P_____P__PP_P_ SH281974 -14.14 108.80 -1 -14.36 108.83 30 53 985 -14.40 108.84 TC 52 987 -14.12 108.82 4 -14.35 109.00 TC 50 988 3 219
1974 SI WA 16:00:00 TS -14.30 108.81 55 984 bom 713 713 P_____O__PP_P_ SH281974 -14.19 108.77 -1 -14.40 108.80 30 55 984 4.00 -14.43 108.79 TC 53 986 -14.17 108.79 4 -14.40 108.97 TC 51 987 4 214
1974 SI WA 18:00:00 TS -14.40 108.74 727 727 O_____P__OP_O_ jtwc_sh SH281974 -14.30 108.70 -1 -14.54 108.73 30 55 984 -14.50 108.70 TC 55 985 -14.26 108.73 4 -14.50 108.90 TC 55 986 4 214
1974 SI WA 19:00:00 TS -14.44 108.71 55 985 bom 727 727 P_____O__PP_P_ SH281974 -14.35 108.67 -1 -14.60 108.70 30 55 985 4.00 -14.53 108.67 TC 55 984 -14.31 108.70 4 -14.53 108.86 TC 55 985 3 213
1974 SI WA 21:00:00 TS -14.53 108.65 738 738 P_____P__PP_P_ SH281974 -14.44 108.61 -1 -14.67 108.63 30 55 983 -14.61 108.64 TC 57 983 -14.42 108.63 4 -14.58 108.79 TC 57 984 3 214
1974 SI WA 22:00:00 TS -14.57 108.62 55 983 bom 752 752 P_____O__PP_P_ SH281974 -14.49 108.58 -1 -14.70 108.60 30 55 983 4.00 -14.66 108.63 TC 58 982 -14.48 108.59 4 -14.61 108.76 TC 58 983 3 210
1974 SI WA 1974-03-12 00:00:00 TS -14.67 108.57 763 763 O_____P__OO_O_ jtwc_sh SH281974 -14.60 108.50 -1 -14.74 108.60 30 55 981 -14.80 108.60 TC 60 981 -14.60 108.50 4 -14.70 108.70 TC 60 982 4 208
1974 SI WA 01:00:00 TS -14.74 108.53 55 981 bom 766 766 P_____O__PP_P_ SH281974 -14.66 108.44 -1 -14.80 108.60 30 55 981 4.00 4.00 -14.89 108.57 TC 60 980 -14.66 108.44 4 -14.77 108.68 TC 60 981 5 207
1974 SI WA 03:00:00 TS -14.91 108.44 791 791 P_____P__PP_P_ SH281974 -14.79 108.32 -1 -15.05 108.54 30 58 980 -15.11 108.51 TC 60 979 -14.79 108.32 4 -14.95 108.65 TC 62 980 6 207
1974 SI WA 04:00:00 TS -15.01 108.39 60 980 bom 801 801 P_____O__PP_P_ SH281974 -14.85 108.24 -1 -15.20 108.50 30 60 980 4.00 -15.23 108.47 TC 60 979 -14.85 108.25 4 -15.05 108.64 TC 63 980 7 205
1974 SI WA 06:00:00 TS -15.21 108.29 826 826 O_____P__OP_O_ jtwc_sh SH281974 -15.00 108.10 -1 -15.46 108.43 30 60 978 -15.50 108.40 TC 60 978 -15.00 108.12 4 -15.30 108.60 TC 65 979 7 205
1974 SI WA 07:00:00 TS -15.32 108.24 60 978 bom 840 840 P_____O__PP_P_ SH281974 -15.07 108.03 -1 -15.60 108.40 30 60 978 4.00 -15.64 108.37 TC 60 977 -15.07 108.04 4 -15.44 108.58 TC 65 978 8 203
1974 SI WA 09:00:00 TS -15.55 108.14 874 874 P_____P__PP_P_ SH281974 -15.24 107.89 -1 -15.94 108.33 30 63 977 -15.95 108.30 TC 62 977 -15.23 107.90 4 -15.73 108.51 TC 65 977 8 202
1974 SI WA 10:00:00 TS -15.68 108.09 65 977 bom 885 885 P_____O__PP_P_ SH281974 -15.32 107.83 -1 -16.10 108.30 40 65 977 -16.10 108.27 TC 63 976 -15.32 107.83 4 -15.89 108.48 TC 65 977 8 201
1974 SI WA 12:00:00 TS -15.91 107.99 908 908 O_____P__OO_O_ jtwc_sh SH281974 -15.50 107.70 -1 -16.38 108.23 40 65 976 -16.40 108.20 TC 65 976 -15.50 107.70 4 -16.20 108.40 TC 65 976 7 202
1974 SI WA 13:00:00 TS -16.02 107.95 65 976 bom 919 903 P_____O__PP_P_ SH281974 -15.59 107.64 -1 -16.50 108.20 40 65 976 4.50 -16.53 108.17 TC 65 975 -15.58 107.66 4 -16.34 108.36 TC 65 975 7 200
1974 SI WA 15:00:00 TS -16.23 107.86 903 903 P_____P__PP_P_ SH281974 -15.78 107.54 -1 -16.69 108.14 40 65 975 -16.76 108.11 TC 65 975 -15.74 107.58 4 -16.61 108.26 TC 67 975 7 201
1974 SI WA 16:00:00 TS -16.34 107.82 65 975 bom 903 887 P_____O__PP_P_ SH281974 -15.89 107.49 -1 -16.80 108.10 40 65 975 4.50 -16.87 108.08 TC 65 974 -15.83 107.55 4 -16.74 108.21 TC 68 975 8 201
1974 SI WA 18:00:00 TS -16.58 107.72 887 880 O_____P__OP_O_ jtwc_sh SH281974 -16.10 107.40 -1 -17.14 107.97 40 68 974 -17.10 108.00 TC 65 974 -16.02 107.47 4 -17.00 108.10 TC 70 975 8 201
1974 SI WA 19:00:00 TS -16.70 107.67 70 974 bom 880 873 P_____O__PP_P_ SH281974 -16.20 107.36 -1 -17.30 107.90 40 70 974 4.50 -17.22 107.94 TC 65 973 -16.13 107.43 4 -17.13 108.05 TC 70 974 8 203
1974 SI WA 21:00:00 TS -16.92 107.57 873 873 P_____P__PP_P_ SH281974 -16.41 107.28 -1 -17.50 107.76 40 70 974 -17.47 107.81 TC 67 973 -16.36 107.33 4 -17.38 107.96 TC 70 974 8 204
1974 SI WA 22:00:00 TS -17.05 107.51 70 974 bom 874 860 P_____O__PP_P_ SH281974 -16.53 107.23 -1 -17.60 107.70 40 70 974 4.50 -17.60 107.74 TC 68 973 -16.50 107.26 4 -17.52 107.91 TC 70 973 9 202
1974 SI WA 1974-03-13 00:00:00 TS -17.34 107.39 861 854 O_____P__OO_O_ jtwc_sh SH281974 -16.80 107.10 -1 -17.92 107.64 40 70 973 -17.90 107.60 TC 70 973 -16.80 107.10 4 -17.80 107.80 TC 70 973 10 202
1974 SI WA 01:00:00 TS -17.50 107.32 70 973 bom 856 845 P_____O__PP_P_ SH281974 -16.95 107.02 -1 -18.10 107.60 40 70 973 4.50 4 -18.07 107.55 TC 69 973 -16.97 107.00 4 -17.96 107.74 TC 69 973 11 204
1974 SI WA 03:00:00 TS -17.85 107.16 845 842 P_____P__PP_P_ SH281974 -17.29 106.81 -1 -18.43 107.47 40 70 974 -18.43 107.46 TC 67 974 -17.35 106.76 4 -18.28 107.61 TC 67 974 12 205
1974 SI WA 04:00:00 TS -18.03 107.06 70 975 bom 842 837 P_____O__PP_P_ SH281974 -17.48 106.69 -1 -18.60 107.40 40 70 975 4.50 4.50 -18.62 107.42 TC 66 974 -17.55 106.63 4 -18.46 107.55 TC 66 974 13 206
1974 SI WA 06:00:00 TS -18.43 106.85 837 836 O_____P__OP_O_ jtwc_sh SH281974 -17.90 106.40 -1 -19.01 107.27 40 70 975 -19.00 107.30 TC 65 975 -17.98 106.33 4 -18.80 107.40 TC 65 976 14 207
1974 SI WA 07:00:00 TS -18.64 106.73 70 975 bom 845 825 P_____O__PP_P_ SH281974 -18.13 106.24 -1 -19.20 107.20 40 70 975 4.50 -19.18 107.22 TC 63 976 -18.21 106.17 4 -18.97 107.33 TC 64 976 14 203
1974 SI WA 09:00:00 TS -19.10 106.56 825 824 P_____P__PP_P_ SH281974 -18.62 105.88 -1 -19.46 107.01 40 66 976 -19.54 107.04 TC 60 978 -18.68 105.83 4 -19.31 107.18 TC 62 978 15 194
1974 SI WA 10:00:00 TS -19.36 106.54 65 977 bom 819 799 P_____O__PP_P_ SH281974 -18.88 105.69 -1 -19.60 106.90 40 65 977 4.50 -19.70 106.93 TC 58 979 -18.92 105.66 4 -19.48 107.10 TC 61 978 15 186
1974 SI WA 12:00:00 TS -19.83 106.48 799 776 O_____P__OO_O_ jtwc_sh SH281974 -19.40 105.30 -1 -20.02 106.71 40 61 980 -20.00 106.70 TC 55 982 -19.40 105.30 6 -19.80 106.90 TC 60 980 15 172
1974 SI WA 13:00:00 TS -20.09 106.65 60 982 bom 767 762 ______O__P__P_ SH281974 -1 -20.20 106.60 30 60 982 4.00 -20.12 106.58 TC 55 982 6 -19.95 106.78 TC 59 980 10 190
1974 SI WA 15:00:00 TS -20.30 106.39 787 787 ______P__P__P_ SH281974 -1 -20.35 106.35 30 56 984 -20.33 106.31 TC 55 983 6 -20.24 106.52 TC 57 982 10 231
1974 SI WA 16:00:00 TS -20.40 106.25 55 986 bom 793 793 ______O__P__P_ SH281974 -1 -20.40 106.20 30 55 986 4.00 -20.42 106.18 TC 55 983 6 -20.37 106.38 TC 56 982 10 235
1974 SI WA 18:00:00 TS -20.60 105.95 816 816 ______P__O__O_ -1 -20.59 105.86 30 55 985 -20.60 105.90 TC 55 985 6 -20.60 106.10 TC 55 984 10 234
1974 SI WA 19:00:00 TS -20.70 105.81 55 985 bom 833 833 ______O__P__P_ -1 -20.70 105.70 30 55 985 4.00 -20.70 105.78 TC 54 985 6 -20.70 105.96 TC 54 984 9 231
1974 SI WA 21:00:00 TS -20.90 105.57 847 847 ______P__P__P_ -1 -20.90 105.50 30 55 985 -20.91 105.53 TC 52 986 6 -20.88 105.69 TC 52 985 9 231
1974 SI WA 22:00:00 TS -20.99 105.43 55 986 bom 864 864 ______O__P__P_ -1 -21.00 105.40 30 55 986 4.00 -21.01 105.40 TC 51 986 6 -20.95 105.56 TC 51 985 10 235
1974 SI WA 1974-03-14 00:00:00 TS -21.19 105.11 890 890 ______P__O__O_ -1 -21.20 105.08 30 51 987 -21.20 105.10 TC 50 988 -21.10 105.30 TC 50 987 11 238
1974 SI WA 01:00:00 TS -21.29 104.91 50 988 bom 908 908 ______O__P____ -1 -21.30 104.90 30 50 988 3.50 3.50 -21.28 104.92 TC 50 988 TC 12 241
1974 SI WA 03:00:00 TS -21.48 104.55 935 935 ______P__P____ -1 -21.51 104.58 30 50 989 -21.44 104.52 TC 50 988 TC 12 242
1974 SI WA 04:00:00 TS -21.56 104.36 50 990 bom 953 953 ______O__P____ -1 -21.60 104.40 30 50 990 3.50 -21.52 104.31 TC 50 988 TC 13 248
1974 SI WA 06:00:00 TS -21.71 103.91 1003 1003 ______P__O____ -1 -21.72 103.92 30 46 989 -21.70 103.90 TC 50 989 13 248
1974 SI WA 07:00:00 TS -21.80 103.71 45 989 bom 1022 1022 ______O__P____ -1 -21.80 103.70 30 45 989 3.00 -21.81 103.72 TC 48 989 12 234
1974 SI WA 09:00:00 TS -22.05 103.40 1049 1049 ______P__P____ -1 -22.06 103.44 30 45 989 -22.04 103.36 TC 45 991 12 229
1974 SI WA 10:00:00 TS -22.18 103.24 45 990 bom 1069 1069 ______O__P____ -1 -22.20 103.30 30 45 990 3.00 -22.16 103.18 TC 43 991 13 237
1974 SI WA 12:00:00 TS -22.40 102.82 1103 1103 ______P__O____ -1 -22.41 102.84 30 41 992 -22.40 102.80 TC 40 993 14 241
1974 SI WA 13:00:00 TS -22.50 102.60 40 993 bom 1121 1121 ______O__P____ -1 -22.50 102.60 30 40 993 3.00 -22.51 102.59 TC 40 993 13 243
1974 SI WA 15:00:00 TS -22.71 102.18 1156 1156 ______P__P____ -1 -22.70 102.20 30 40 993 -22.71 102.16 TC 40 993 13 242
1974 SI WA 16:00:00 TS -22.81 101.97 40 994 bom 1174 1174 ______O__P____ -1 -22.80 102.00 30 40 994 3.00 -22.81 101.94 TC 40 993 14 244
1974 SI WA 18:00:00 TS -23.00 101.52 1220 1220 ______P__O____ -1 -23.00 101.53 30 40 993 -23.00 101.50 TC 40 993 14 245
1974 SI WA 19:00:00 TS -23.10 101.30 40 993 bom 1238 1238 ______O__P____ -1 -23.10 101.30 30 40 993 3.00 -23.10 101.30 TC 40 993 13 243
1974 SI WA 21:00:00 TS -23.29 100.90 1276 1276 ______P__P____ -1 -23.31 100.89 30 40 993 -23.28 100.90 TC 40 993 12 243
1974 SI WA 22:00:00 TS -23.38 100.70 40 993 bom 1294 1294 ______O__P____ -1 -23.40 100.70 30 40 993 3.00 -23.36 100.70 TC 40 993 12 247
1974 SI WA 1974-03-15 00:00:00 TS -23.52 100.30 1333 1333 ______P__O____ -1 -23.55 100.30 30 40 993 -23.50 100.30 TC 40 994 12 250
1974 SI WA 01:00:00 TS -23.58 100.10 40 994 bom 1352 1352 ______O__P____ -1 -23.60 100.10 30 40 994 3.00 -23.56 100.09 TC 40 994 12 256
1974 SI WA 03:00:00 TS -23.67 99.69 1391 1391 ______P__P____ -1 -23.68 99.72 30 40 994 -23.65 99.67 TC 40 994 12 259
1974 SI WA 04:00:00 TS -23.69 99.47 40 995 bom 1412 1412 ______O__P____ -1 -23.70 99.50 30 40 995 3.00 3.00 -23.68 99.45 TC 40 994 13 266
1974 SI WA 06:00:00 TS -23.71 98.98 1462 1462 ______P__O____ -1 -23.71 98.96 30 40 994 -23.70 99.00 TC 40 994 14 269
1974 SI WA 07:00:00 TS -23.70 98.73 40 994 bom 1493 1493 ______O__P____ -1 -23.70 98.70 30 40 994 3.00 -23.69 98.77 TC 38 994 13 276
1974 SI WA 09:00:00 TS -23.65 98.30 1534 1534 ______P__P____ -1 -23.65 98.30 30 36 995 -23.64 98.30 TC 35 997 12 279
1974 SI WA 10:00:00 TS -23.60 98.08 35 996 bom 1555 1555 ______O__P____ -1 -23.60 98.10 30 35 996 3.00 -23.60 98.06 TC 33 997 13 284
1974 SI WA 12:00:00 TS -23.49 97.62 1606 1606 ______P__O____ -1 -23.47 97.63 30 31 998 -23.50 97.60 TC 30 1000 13 286
1974 SI WA 13:00:00 TS -23.42 97.39 30 1000 bom 1628 1628 ______O__P____ -1 -23.40 97.40 20 30 1000 2.50 -23.44 97.37 TC 29 1000 13 288
1974 SI WA 15:00:00 TS -23.29 96.97 1670 1670 ______P__P____ -1 -23.27 97.00 20 26 1002 -23.31 96.93 TC 27 1001 12 289
1974 SI WA 16:00:00 TS -23.22 96.76 25 1003 bom 1692 1692 ______O__P____ -1 -23.20 96.80 20 25 1003 2.00 -23.24 96.72 TC 26 1001 13 289
1974 SI WA 18:00:00 TS -23.08 96.32 1744 1744 ______P__O____ -1 -23.07 96.33 20 25 1002 -23.10 96.30 TC 25 1002 13 289
1974 SI WA 19:00:00 TS -23.02 96.09 25 1002 bom 1766 1766 ______O__P____ -1 -23.00 96.10 20 25 1002 2.00 -23.03 96.08 TC 25 1002 12 289
1974 SI WA 21:00:00 TS -22.88 95.67 1808 1808 ______P__P____ -1 -22.87 95.69 20 25 1002 -22.89 95.65 TC 25 1002 12 290
1974 SI WA 22:00:00 TS -22.81 95.48 25 1002 bom 1830 1830 ______O__P____ -1 -22.80 95.50 20 25 1002 2.00 -22.83 95.46 TC 25 1002 12 290
1974 SI WA 1974-03-16 00:00:00 TS -22.68 95.09 1872 1872 ______P__O____ -1 -22.66 95.08 20 25 1002 -22.70 95.10 TC 25 1003 11 290
1974 SI WA 01:00:00 TS -22.62 94.93 25 1003 bom 1894 1894 ______O__P____ -1 -22.60 94.90 20 25 1003 2.00 -22.65 94.96 TC 25 1003 8 291
1974 SI WA 03:00:00 TS -22.55 94.71 1916 1916 ______P__P____ -1 -22.54 94.68 20 25 1003 -22.56 94.73 TC 25 1003 6 292
1974 SI WA 04:00:00 TS -22.50 94.61 25 1004 bom 1927 1927 ______O__P____ -1 -22.50 94.60 20 25 1004 2.00 2.00 -22.51 94.62 TC 25 1003 6 300
1974 SI WA 06:00:00 TS -22.39 94.41 1949 1949 ______P__O____ -1 -22.38 94.42 20 25 1003 -22.40 94.40 TC 25 1003 7 303
1974 SI WA 07:00:00 TS -22.31 94.28 25 1003 bom 1961 1961 ______O__P____ -1 -22.30 94.30 20 25 1003 2.00 -22.32 94.26 TC 24 1003 10 304
1974 SI WA 09:00:00 TS -22.12 93.97 1995 1995 ______P__P____ -1 -22.09 93.98 20 25 1003 -22.14 93.96 TC 22 1004 10 303
1974 SI WA 10:00:00 TS -22.03 93.81 25 1004 bom 2018 2018 ______O__P____ -1 -22.00 93.80 20 25 1004 2.00 -22.05 93.81 TC 21 1004 10 294
1974 SI WA 12:00:00 TS -21.91 93.48 2050 2050 ______P__O____ -1 -21.92 93.46 20 25 1004 -21.90 93.50 TC 20 1005 9 289
1974 SI WA 13:00:00 TS -21.88 93.32 25 1005 bom 2071 2071 ______O__P____ -1 -21.90 93.30 20 25 1005 1.50 -21.85 93.35 TC 20 1005 8 284
1974 SI WA 15:00:00 TS -21.81 93.04 2103 2103 ______P__P____ -1 -21.83 93.03 20 25 1005 -21.78 93.04 TC 20 1005 8 284
1974 SI WA 16:00:00 TS -21.78 92.90 25 1006 bom 2113 2113 ______O__P____ -1 -21.80 92.90 20 25 1006 1.50 -21.76 92.89 TC 20 1005 8 283
1974 SI WA 18:00:00 TS -21.72 92.62 2146 2146 ______P__O____ -1 -21.74 92.63 20 25 1005 -21.70 92.60 TC 20 1005 8 284
1974 SI WA 19:00:00 TS -21.68 92.48 25 1005 bom 2154 2153 ______O__P____ -1 -21.70 92.50 20 25 1005 1.50 -21.66 92.46 TC 19 1005 8 293
1974 SI WA 21:00:00 TS -21.57 92.21 2167 2158 ______P__P____ -1 -21.56 92.23 20 25 1005 -21.57 92.19 TC 17 1005 8 295
1974 SI WA 22:00:00 TS -21.51 92.08 25 1005 bom 2165 2165 ______O__P____ -1 -21.50 92.10 20 25 1005 1.50 -21.51 92.06 TC 16 1005 8 292
1974 SI WA 1974-03-17 00:00:00 TS -21.42 91.82 2178 2178 ______P__O____ -1 -21.42 91.83 20 25 1005 -21.40 91.80 TC 15 1006 7 287
1974 SI WA 01:00:00 NR -21.40 91.70 25 1006 bom 2185 ______O_______ -1 -21.40 91.70 20 25 1006 1.50 1.50 TC 7 278